Time;durP1;ratioP1;P1;durP2;ratioP2;P2;SDS_P1;SDS_P2;PMS_P1;PMS_P2;Temp;Humidity;BMP_temperature;BMP_pressure;BME280_temperature;BME280_humidity;BME280_pressure;Samples;Min_cycle;Max_cycle;Signal;HPM_P1;HPM_P2
2022/03/06 00:01:20;;;;;;;14.50;12.53;;;;;;;-2.71;75.95;95994.59;5032033;28;24416;-73
2022/03/06 00:03:48;;;;;;;15.85;12.45;;;;;;;-2.74;76.07;95995.47;5031906;28;24448;-73
2022/03/06 00:06:15;;;;;;;12.90;10.68;;;;;;;-2.72;76.02;95992.91;5032092;28;24435;-73
2022/03/06 00:08:41;;;;;;;12.77;11.18;;;;;;;-2.69;75.98;96000.50;5031820;28;24797;-73
2022/03/06 00:11:08;;;;;;;16.75;10.73;;;;;;;-2.69;76.34;95993.72;5031954;28;24481;-74
2022/03/06 00:13:35;;;;;;;15.65;11.10;;;;;;;-2.67;75.86;95991.16;5083519;23;24574;-72
2022/03/06 00:16:02;;;;;;;12.90;11.25;;;;;;;-2.70;75.96;95996.28;5038892;28;24789;-73
2022/03/06 00:18:28;;;;;;;14.20;11.70;;;;;;;-2.62;75.64;95997.06;5031801;28;24813;-73
2022/03/06 00:20:58;;;;;;;15.10;11.35;;;;;;;-2.61;76.13;95993.66;5031691;28;24443;-72
2022/03/06 00:23:25;;;;;;;15.65;11.32;;;;;;;-2.66;75.59;95997.94;5031854;28;24517;-72
2022/03/06 00:25:51;;;;;;;14.70;11.52;;;;;;;-2.69;76.18;95992.91;5031930;28;24450;-74
2022/03/06 00:28:18;;;;;;;20.55;13.02;;;;;;;-2.75;76.30;95998.00;5031751;28;24427;-73
2022/03/06 00:30:45;;;;;;;13.50;12.00;;;;;;;-2.99;77.11;95996.50;5031586;28;24449;-72
2022/03/06 00:33:12;;;;;;;17.02;13.25;;;;;;;-3.23;79.68;95997.47;5030816;28;24432;-74
2022/03/06 00:35:38;;;;;;;15.43;12.18;;;;;;;-3.35;78.81;95987.41;5031674;28;24423;-73
2022/03/06 00:38:06;;;;;;;14.52;12.88;;;;;;;-3.65;81.42;95989.22;5031419;28;24458;-72
2022/03/06 00:40:32;;;;;;;15.10;11.67;;;;;;;-3.74;82.07;95990.13;5031761;28;24509;-73
2022/03/06 00:42:59;;;;;;;15.05;12.05;;;;;;;-3.56;81.46;95980.75;5031263;28;24432;-72
2022/03/06 00:45:25;;;;;;;16.27;12.60;;;;;;;-3.50;80.93;95986.63;5031225;28;24830;-73
2022/03/06 00:47:52;;;;;;;21.70;12.93;;;;;;;-3.51;80.92;95984.13;5031456;28;25040;-72
2022/03/06 00:50:18;;;;;;;19.40;14.25;;;;;;;-3.41;80.52;95986.59;5031568;28;24423;-73
2022/03/06 00:52:45;;;;;;;20.77;13.63;;;;;;;-3.35;80.13;95988.25;5031317;28;24431;-73
2022/03/06 00:55:13;;;;;;;19.63;14.90;;;;;;;-3.29;80.03;95988.22;5031064;28;24419;-73
2022/03/06 00:57:39;;;;;;;14.47;12.70;;;;;;;-3.39;79.91;95983.22;5030832;28;24420;-72
2022/03/06 01:00:07;;;;;;;18.95;14.15;;;;;;;-3.34;79.81;95986.56;5031349;28;24435;-73
2022/03/06 01:02:34;;;;;;;21.88;14.90;;;;;;;-3.15;79.24;95995.75;5031131;28;24642;-73
2022/03/06 01:05:00;;;;;;;16.65;12.93;;;;;;;-3.27;79.73;95998.34;5031124;28;24452;-73
2022/03/06 01:07:27;;;;;;;19.75;13.65;;;;;;;-3.30;79.47;95990.75;5030955;28;25030;-73
2022/03/06 01:09:53;;;;;;;16.13;13.07;;;;;;;-3.38;80.57;95990.78;5030517;28;24424;-73
2022/03/06 01:12:21;;;;;;;17.80;12.02;;;;;;;-3.41;80.11;95996.72;5037288;28;24447;-73
2022/03/06 01:14:48;;;;;;;16.35;12.43;;;;;;;-3.42;80.23;95997.56;5051019;28;24945;-73
2022/03/06 01:17:15;;;;;;;17.27;12.05;;;;;;;-3.38;79.60;96000.06;5051008;28;24794;-73
2022/03/06 01:19:42;;;;;;;16.30;12.82;;;;;;;-3.45;79.60;96002.66;5050490;28;24791;-73
2022/03/06 01:22:08;;;;;;;13.88;11.75;;;;;;;-3.54;79.86;96007.75;5050650;28;24522;-72
2022/03/06 01:24:35;;;;;;;13.53;11.67;;;;;;;-3.52;79.58;96011.13;5050765;28;24455;-72
2022/03/06 01:27:01;;;;;;;15.05;12.20;;;;;;;-3.51;79.65;96015.34;5050567;28;24481;-72
2022/03/06 01:29:29;;;;;;;14.00;11.88;;;;;;;-3.60;80.27;96005.22;5050573;28;24462;-73
2022/03/06 01:31:55;;;;;;;14.57;11.30;;;;;;;-3.62;80.74;96006.09;5050307;28;24972;-73
2022/03/06 01:34:22;;;;;;;14.60;11.68;;;;;;;-3.61;81.04;96001.03;5050446;28;24465;-72
2022/03/06 01:36:49;;;;;;;15.88;12.07;;;;;;;-3.54;80.31;95999.31;5050693;28;24418;-73
2022/03/06 01:39:15;;;;;;;15.63;12.60;;;;;;;-3.54;80.02;96009.44;5050470;28;24423;-73
2022/03/06 01:41:42;;;;;;;16.30;12.68;;;;;;;-3.51;80.82;96001.84;5050240;28;25013;-73
2022/03/06 01:44:13;;;;;;;16.15;13.95;;;;;;;-3.54;80.49;95997.63;5050505;28;24443;-72
2022/03/06 01:46:41;;;;;;;23.05;16.85;;;;;;;-3.59;80.29;96004.41;5054804;28;24492;-73
2022/03/06 01:49:07;;;;;;;21.52;16.08;;;;;;;-3.63;79.92;95999.34;5054328;28;24952;-72
2022/03/06 01:51:34;;;;;;;14.93;12.43;;;;;;;-3.63;81.17;95996.81;5054411;28;24941;-73
2022/03/06 01:54:00;;;;;;;16.92;13.52;;;;;;;-3.58;81.13;95997.66;5054262;28;24430;-72
2022/03/06 01:56:27;;;;;;;18.50;13.02;;;;;;;-3.54;81.20;95999.31;5054294;28;24419;-73
2022/03/06 01:58:54;;;;;;;13.95;12.48;;;;;;;-3.63;81.93;96000.22;5054452;28;24440;-73
2022/03/06 02:01:21;;;;;;;14.27;12.55;;;;;;;-3.71;82.36;95995.19;5054573;28;24434;-72
2022/03/06 02:03:49;;;;;;;18.90;12.43;;;;;;;-3.76;82.09;95999.41;5054126;28;24978;-72
2022/03/06 02:06:17;;;;;;;15.98;11.88;;;;;;;-3.87;82.18;95993.53;5054146;28;24824;-73
2022/03/06 02:08:44;;;;;;;17.33;12.57;;;;;;;-3.86;82.93;95989.31;5054177;28;24472;-72
2022/03/06 02:11:10;;;;;;;15.00;12.47;;;;;;;-3.89;83.32;95992.72;5054359;28;24500;-72
2022/03/06 02:13:38;;;;;;;18.35;12.48;;;;;;;-3.87;82.81;95991.00;5053912;28;24526;-73
2022/03/06 02:16:06;;;;;;;13.50;11.55;;;;;;;-3.79;82.20;95985.91;5054301;28;24426;-72
2022/03/06 02:18:32;;;;;;;16.95;12.30;;;;;;;-3.93;83.51;95985.94;5053734;28;25047;-72
2022/03/06 02:21:00;;;;;;;16.65;12.18;;;;;;;-3.97;83.72;95991.88;5053899;28;24449;-72
2022/03/06 02:23:28;;;;;;;14.60;12.02;;;;;;;-3.95;82.86;95985.97;5054087;28;24428;-73
2022/03/06 02:25:54;;;;;;;15.60;12.40;;;;;;;-4.07;82.25;95986.00;5053943;28;24489;-72
2022/03/06 02:28:21;;;;;;;16.55;11.93;;;;;;;-4.11;82.56;95986.03;5053779;28;24816;-73
2022/03/06 02:30:47;;;;;;;18.25;12.63;;;;;;;-4.11;82.58;95983.50;5053839;28;24426;-73
2022/03/06 02:33:14;;;;;;;17.13;14.07;;;;;;;-4.25;84.16;95989.41;5053717;28;24419;-73
2022/03/06 02:35:41;;;;;;;16.23;13.13;;;;;;;-4.26;84.85;95985.22;5053593;28;24431;-72
2022/03/06 02:38:08;;;;;;;15.95;12.95;;;;;;;-4.16;83.90;95989.38;5053651;28;24485;-74
2022/03/06 02:40:40;;;;;;;20.57;14.47;;;;;;;-4.17;83.03;95987.69;5053801;28;24515;-72
2022/03/06 02:43:07;;;;;;;19.10;13.20;;;;;;;-4.13;83.50;95984.31;5053722;28;24475;-73
2022/03/06 02:45:34;;;;;;;16.50;13.50;;;;;;;-4.06;83.10;95985.16;5053419;28;24853;-74
2022/03/06 02:48:01;;;;;;;15.55;12.63;;;;;;;-4.05;82.63;95983.47;5053268;28;24462;-72
2022/03/06 02:50:31;;;;;;;17.15;12.40;;;;;;;-4.03;83.53;95990.22;5053667;28;24427;-72
2022/03/06 02:52:59;;;;;;;19.27;12.27;;;;;;;-4.11;84.75;95996.97;5053281;28;24999;-72
2022/03/06 02:55:25;;;;;;;18.38;14.18;;;;;;;-4.34;86.77;95998.69;5053491;28;24434;-72
2022/03/06 02:57:54;;;;;;;15.32;12.65;;;;;;;-4.34;87.22;95993.63;5052224;28;24468;-73
2022/03/06 03:00:22;;;;;;;16.80;13.45;;;;;;;-4.33;87.15;95991.13;5053461;28;24447;-72
2022/03/06 03:02:50;;;;;;;16.52;13.75;;;;;;;-4.23;87.00;95994.44;5053200;28;24948;-72
2022/03/06 03:05:17;;;;;;;20.10;12.77;;;;;;;-4.17;86.14;95994.44;5053874;28;24450;-73
2022/03/06 03:07:48;;;;;;;17.48;12.35;;;;;;;-4.18;83.89;95992.78;5053017;28;24437;-72
2022/03/06 03:10:19;;;;;;;14.02;12.50;;;;;;;-4.28;84.56;95991.94;5053425;28;24419;-72
2022/03/06 03:12:46;;;;;;;13.70;11.65;;;;;;;-4.29;83.99;95997.00;5052965;28;24431;-73
2022/03/06 03:15:15;;;;;;;15.45;12.55;;;;;;;-4.23;84.23;96002.03;5052809;28;24493;-73
2022/03/06 03:17:41;;;;;;;19.50;14.10;;;;;;;-4.26;83.76;96000.38;5052824;28;24434;-72
2022/03/06 03:20:10;;;;;;;17.13;14.05;;;;;;;-4.22;83.38;96002.06;5052937;28;24431;-72
2022/03/06 03:22:36;;;;;;;18.02;14.02;;;;;;;-4.25;84.08;96006.28;5052913;28;24426;-72
2022/03/06 03:25:04;;;;;;;18.02;14.32;;;;;;;-4.14;84.24;96002.88;5053354;28;24470;-73
2022/03/06 03:27:31;;;;;;;19.02;14.07;;;;;;;-4.17;83.91;96005.41;5053244;28;24430;-73
2022/03/06 03:29:57;;;;;;;17.90;14.13;;;;;;;-4.16;84.60;96001.19;5052909;28;24438;-73
2022/03/06 03:32:25;;;;;;;15.93;13.77;;;;;;;-4.16;83.24;96001.19;5053116;28;24431;-72
2022/03/06 03:34:52;;;;;;;16.95;13.30;;;;;;;-4.10;85.06;96000.34;5053167;28;24481;-73
2022/03/06 03:37:18;;;;;;;18.50;13.43;;;;;;;-4.08;84.15;96003.69;5053120;28;24431;-72
2022/03/06 03:39:44;;;;;;;17.77;12.80;;;;;;;-4.11;83.16;96007.09;5052663;28;24459;-72
2022/03/06 03:42:11;;;;;;;17.77;12.05;;;;;;;-4.19;82.24;96009.63;5052616;28;24431;-72
2022/03/06 03:44:37;;;;;;;13.38;11.85;;;;;;;-4.22;81.10;96007.13;5052178;28;24987;-73
2022/03/06 03:47:04;;;;;;;17.80;13.07;;;;;;;-4.41;81.54;96002.94;5052493;28;24415;-72
2022/03/06 03:49:32;;;;;;;14.77;11.88;;;;;;;-4.46;82.58;96010.50;5052538;28;24469;-72
2022/03/06 03:51:58;;;;;;;15.80;12.50;;;;;;;-4.41;81.72;96008.81;5052470;28;24430;-72
2022/03/06 03:54:25;;;;;;;18.52;12.27;;;;;;;-4.50;80.80;96013.88;5054794;28;25018;-72
2022/03/06 03:56:51;;;;;;;16.55;13.02;;;;;;;-4.67;81.38;96011.38;5055927;28;24415;-72
2022/03/06 03:59:18;;;;;;;15.02;12.68;;;;;;;-4.73;83.24;96016.41;5054081;28;24435;-72
2022/03/06 04:01:44;;;;;;;17.00;12.38;;;;;;;-4.99;84.01;96023.13;5052600;28;24423;-73
2022/03/06 04:04:10;;;;;;;17.73;13.93;;;;;;;-5.20;87.49;96018.84;5052481;28;24443;-72
2022/03/06 04:06:38;;;;;;;20.90;14.32;;;;;;;-5.20;89.89;96022.22;5052255;28;24855;-72
2022/03/06 04:09:05;;;;;;;16.63;13.80;;;;;;;-4.96;90.10;96033.22;5052537;28;24423;-72
2022/03/06 04:11:31;;;;;;;19.85;13.90;;;;;;;-4.87;88.43;96035.75;5052236;28;24423;-73
2022/03/06 04:13:57;;;;;;;18.95;14.65;;;;;;;-4.96;88.68;96038.28;5051889;28;24469;-73
2022/03/06 04:16:24;;;;;;;19.50;13.73;;;;;;;-4.95;88.98;96029.84;5051789;28;24953;-73
2022/03/06 04:18:50;;;;;;;18.58;14.13;;;;;;;-4.83;89.39;96036.59;5052264;28;24423;-73
2022/03/06 04:21:17;;;;;;;16.98;13.82;;;;;;;-4.81;89.29;96034.94;5051821;28;24424;-72
2022/03/06 04:23:45;;;;;;;17.00;13.55;;;;;;;-4.86;88.80;96027.31;5051585;28;24852;-72
2022/03/06 04:26:12;;;;;;;15.88;12.93;;;;;;;-4.84;89.40;96032.41;5051371;28;24478;-72
2022/03/06 04:28:38;;;;;;;16.45;13.43;;;;;;;-4.80;88.78;96037.44;5051614;28;24416;-72
2022/03/06 04:31:05;;;;;;;22.43;13.10;;;;;;;-4.72;87.41;96037.47;5051707;28;24828;-72
2022/03/06 04:33:31;;;;;;;16.90;13.30;;;;;;;-4.79;87.19;96039.13;5051547;28;24443;-72
2022/03/06 04:35:58;;;;;;;17.10;12.98;;;;;;;-4.82;86.82;96040.81;5051411;28;24423;-72
2022/03/06 04:38:24;;;;;;;21.92;13.38;;;;;;;-4.87;87.75;96038.28;5051272;28;24773;-72
2022/03/06 04:40:52;;;;;;;17.15;12.75;;;;;;;-4.89;87.85;96042.50;5051226;28;24477;-72
2022/03/06 04:43:18;;;;;;;16.13;13.15;;;;;;;-4.91;87.07;96041.66;5051298;28;24426;-72
2022/03/06 04:45:45;;;;;;;15.27;12.65;;;;;;;-4.86;87.33;96047.53;5051423;28;25043;-72
2022/03/06 04:48:11;;;;;;;14.45;12.35;;;;;;;-4.80;86.74;96050.09;5051091;28;24423;-73
2022/03/06 04:50:38;;;;;;;16.60;13.63;;;;;;;-4.74;86.87;96050.09;5051045;28;24435;-72
2022/03/06 04:53:04;;;;;;;19.88;13.68;;;;;;;-4.78;86.00;96053.47;5051017;28;24994;-72
2022/03/06 04:55:30;;;;;;;18.38;13.10;;;;;;;-4.73;86.55;96049.25;5051081;28;24450;-72
2022/03/06 04:57:58;;;;;;;18.05;13.20;;;;;;;-4.66;85.30;96052.63;5051162;28;24477;-72
2022/03/06 05:00:25;;;;;;;18.02;13.70;;;;;;;-4.66;84.59;96052.63;5051109;28;24986;-72
2022/03/06 05:02:52;;;;;;;15.98;13.07;;;;;;;-4.69;85.59;96052.63;5051186;28;24470;-72
2022/03/06 05:05:18;;;;;;;17.73;13.15;;;;;;;-4.71;85.58;96059.34;5051070;28;24443;-72
2022/03/06 05:07:45;;;;;;;17.75;12.82;;;;;;;-4.66;85.87;96060.22;5050653;28;24484;-72
2022/03/06 05:10:11;;;;;;;17.45;12.82;;;;;;;-4.67;86.02;96061.06;5050857;28;24982;-72
2022/03/06 05:12:40;;;;;;;14.52;11.82;;;;;;;-4.71;86.41;96070.34;5050715;28;24434;-72
2022/03/06 05:15:10;;;;;;;16.48;12.85;;;;;;;-4.78;86.75;96065.22;5051801;28;24493;-72
2022/03/06 05:17:37;;;;;;;20.05;14.13;;;;;;;-4.95;90.03;96063.53;5051507;28;24408;-73
2022/03/06 05:20:04;;;;;;;20.33;14.25;;;;;;;-4.99;91.36;96066.06;5050519;28;24944;-72
2022/03/06 05:22:31;;;;;;;17.88;13.50;;;;;;;-5.06;92.83;96075.28;5051011;28;24797;-72
2022/03/06 05:24:58;;;;;;;16.83;13.77;;;;;;;-4.98;93.03;96075.31;5051004;28;24426;-72
2022/03/06 05:27:24;;;;;;;15.82;13.25;;;;;;;-4.82;91.40;96071.13;5050928;28;24435;-72
2022/03/06 05:29:51;;;;;;;13.43;12.02;;;;;;;-4.85;89.53;96072.00;5050708;28;24430;-72
2022/03/06 05:32:18;;;;;;;13.87;11.53;;;;;;;-4.78;84.21;96071.16;5050801;28;24490;-73
2022/03/06 05:34:45;;;;;;;15.40;12.65;;;;;;;-4.88;84.06;96074.50;5050972;28;24438;-72
2022/03/06 05:37:11;;;;;;;17.02;14.13;;;;;;;-5.08;85.21;96076.97;5050866;28;24418;-72
2022/03/06 05:39:38;;;;;;;17.00;12.77;;;;;;;-5.39;86.97;96073.50;5050607;28;24469;-72
2022/03/06 05:42:05;;;;;;;18.13;13.75;;;;;;;-5.37;87.80;96079.41;5050612;28;24512;-72
2022/03/06 05:44:31;;;;;;;20.23;14.10;;;;;;;-5.45;89.49;96086.09;5050364;28;24422;-72
2022/03/06 05:46:58;;;;;;;18.85;14.13;;;;;;;-5.54;90.17;96088.59;5050474;28;24454;-72
2022/03/06 05:49:25;;;;;;;18.83;13.70;;;;;;;-5.59;91.64;96096.13;5050088;28;24415;-72
2022/03/06 05:51:52;;;;;;;16.73;13.13;;;;;;;-5.50;91.89;96091.13;5050569;28;24419;-72
2022/03/06 05:54:19;;;;;;;15.82;13.70;;;;;;;-5.43;92.11;96090.31;5050412;28;24817;-72
2022/03/06 05:56:45;;;;;;;16.70;13.60;;;;;;;-5.38;91.19;96090.31;5050215;28;24419;-72
2022/03/06 05:59:11;;;;;;;20.85;14.38;;;;;;;-5.33;90.79;96092.91;5049962;28;24419;-72
2022/03/06 06:01:38;;;;;;;18.02;14.07;;;;;;;-5.30;91.39;96085.31;5050077;28;25022;-72
2022/03/06 06:04:05;;;;;;;16.30;14.23;;;;;;;-5.13;92.28;96091.28;5050522;28;24434;-72
2022/03/06 06:06:33;;;;;;;19.60;14.25;;;;;;;-5.07;92.51;96098.03;5050913;28;25023;-72
2022/03/06 06:08:59;;;;;;;15.35;13.70;;;;;;;-5.10;93.98;96093.81;5051142;28;24423;-72
2022/03/06 06:11:26;;;;;;;15.68;13.57;;;;;;;-4.97;91.93;96094.69;5050807;28;24423;-72
2022/03/06 06:13:52;;;;;;;15.38;12.75;;;;;;;-4.99;90.36;96091.31;5051493;28;24443;-72
2022/03/06 06:16:18;;;;;;;18.50;13.40;;;;;;;-4.90;89.28;96091.31;5050228;28;24435;-72
2022/03/06 06:18:45;;;;;;;17.38;13.38;;;;;;;-4.88;87.29;96090.50;5049694;28;24777;-72
2022/03/06 06:21:13;;;;;;;17.42;12.98;;;;;;;-5.04;86.54;96100.53;5050012;28;24793;-72
2022/03/06 06:23:41;;;;;;;18.50;14.50;;;;;;;-5.03;87.07;96098.03;5049870;28;25311;-72
2022/03/06 06:26:07;;;;;;;18.15;13.80;;;;;;;-5.11;88.61;96094.66;5049938;28;24447;-72
2022/03/06 06:28:34;;;;;;;18.42;13.30;;;;;;;-5.10;89.55;96101.38;5049813;28;24820;-72
2022/03/06 06:31:00;;;;;;;17.75;14.32;;;;;;;-4.93;88.33;96098.88;5050961;28;24983;-72
2022/03/06 06:33:27;;;;;;;18.20;13.95;;;;;;;-4.90;87.98;96104.78;5053581;28;24439;-73
2022/03/06 06:35:54;;;;;;;16.23;13.00;;;;;;;-4.85;88.24;96097.25;5053548;28;24434;-72
2022/03/06 06:38:21;;;;;;;15.43;13.77;;;;;;;-4.73;89.02;96094.75;5053552;28;24423;-72
2022/03/06 06:40:49;;;;;;;21.27;15.07;;;;;;;-4.62;88.94;96098.13;5053285;28;24486;-72
2022/03/06 06:43:15;;;;;;;27.65;23.65;;;;;;;-4.43;89.81;96093.09;5052899;28;24426;-72
2022/03/06 06:45:42;;;;;;;30.23;21.38;;;;;;;-4.23;89.62;96098.13;5052661;28;24447;-72
2022/03/06 06:48:08;;;;;;;22.35;19.95;;;;;;;-4.00;89.77;96100.69;5052427;28;24427;-72
2022/03/06 06:50:35;;;;;;;20.75;18.00;;;;;;;-3.77;89.42;96106.53;5053344;28;24418;-72
2022/03/06 06:53:01;;;;;;;19.15;15.85;;;;;;;-3.58;88.14;96104.81;5053367;28;24426;-71
2022/03/06 06:55:28;;;;;;;20.55;16.60;;;;;;;-3.39;88.67;96097.16;5053281;28;24469;-71
2022/03/06 06:57:56;;;;;;;17.25;15.00;;;;;;;-3.24;89.31;96105.53;5053057;28;24956;-71
2022/03/06 07:00:22;;;;;;;23.05;15.80;;;;;;;-3.09;89.31;96103.81;5053052;28;24469;-71
2022/03/06 07:02:49;;;;;;;20.98;16.27;;;;;;;-2.93;89.47;96107.94;5053406;28;24492;-71
2022/03/06 07:05:15;;;;;;;18.20;15.63;;;;;;;-2.76;90.96;96103.63;5053251;28;24481;-71
2022/03/06 07:07:41;;;;;;;18.98;16.25;;;;;;;-2.59;88.99;96113.69;5052735;28;24443;-71
2022/03/06 07:10:09;;;;;;;18.83;15.68;;;;;;;-2.40;87.93;96114.41;5053152;28;24461;-71
2022/03/06 07:12:43;;;;;;;18.02;16.05;;;;;;;-2.26;88.28;96119.41;5052841;28;24432;-71
2022/03/06 07:15:12;;;;;;;18.42;15.98;;;;;;;-2.09;86.52;96117.56;5053047;28;24557;-71
2022/03/06 07:17:39;;;;;;;22.83;18.93;;;;;;;-1.95;85.80;96109.84;5052879;28;24418;-70
2022/03/06 07:20:07;;;;;;;31.60;22.25;;;;;;;-1.74;84.67;96124.03;5053094;28;24430;-71
2022/03/06 07:22:33;;;;;;;32.05;23.45;;;;;;;-1.60;83.75;96119.66;5052740;28;24841;-71
2022/03/06 07:25:00;;;;;;;30.38;22.80;;;;;;;-1.39;83.38;96126.22;5052629;28;24545;-70
2022/03/06 07:27:26;;;;;;;24.00;20.33;;;;;;;-1.20;81.81;96126.03;5052499;28;24492;-71
2022/03/06 07:29:52;;;;;;;23.13;18.17;;;;;;;-1.09;81.05;96119.13;5052404;28;25036;-71
2022/03/06 07:32:20;;;;;;;19.33;16.80;;;;;;;-0.93;79.78;96128.22;5052679;28;24423;-71
2022/03/06 07:34:47;;;;;;;20.33;16.95;;;;;;;-0.78;80.19;96135.69;5052684;28;24411;-71
2022/03/06 07:37:13;;;;;;;24.43;17.30;;;;;;;-0.65;79.24;96123.66;5052563;28;24469;-71
2022/03/06 07:39:40;;;;;;;20.15;16.88;;;;;;;-0.57;78.79;96128.63;5052315;28;24419;-71
2022/03/06 07:42:06;;;;;;;20.38;16.85;;;;;;;-0.42;78.84;96119.94;5051931;28;24423;-71
2022/03/06 07:44:33;;;;;;;20.23;16.48;;;;;;;-0.12;76.56;96122.03;5052350;28;24785;-71
2022/03/06 07:46:59;;;;;;;23.73;16.75;;;;;;;0.13;76.06;96132.69;5052329;28;24466;-71
2022/03/06 07:49:27;;;;;;;20.98;16.05;;;;;;;0.21;79.61;96128.28;5052210;28;24415;-71
2022/03/06 07:51:53;;;;;;;19.30;16.45;;;;;;;0.49;77.31;96127.84;5052232;28;24423;-71
2022/03/06 07:54:20;;;;;;;20.17;16.45;;;;;;;0.58;76.24;96120.00;5052239;28;24411;-71
2022/03/06 07:56:46;;;;;;;19.63;16.85;;;;;;;0.80;77.41;96128.09;5051987;28;24505;-71
2022/03/06 07:59:13;;;;;;;19.35;15.90;;;;;;;0.84;78.36;96128.88;5051866;28;25043;-71
2022/03/06 08:01:39;;;;;;;19.20;16.27;;;;;;;0.90;78.02;96134.72;5052066;28;24422;-71
2022/03/06 08:04:06;;;;;;;21.95;16.38;;;;;;;1.06;79.20;96119.94;5052181;28;24831;-71
2022/03/06 08:06:34;;;;;;;20.95;17.27;;;;;;;0.95;76.32;96132.06;5051784;28;24859;-71
2022/03/06 08:09:02;;;;;;;20.10;16.65;;;;;;;0.96;77.21;96133.75;5051673;28;24411;-71
2022/03/06 08:11:29;;;;;;;24.33;16.65;;;;;;;1.23;76.00;96142.59;5052095;28;24435;-71
2022/03/06 08:13:55;;;;;;;18.40;16.30;;;;;;;1.18;75.06;96134.16;5051653;28;24472;-71
2022/03/06 08:16:22;;;;;;;22.10;16.48;;;;;;;1.14;74.76;96133.38;5051786;28;24411;-71
2022/03/06 08:18:48;;;;;;;23.25;16.45;;;;;;;1.24;76.48;96139.16;5051624;28;25098;-71
2022/03/06 08:21:15;;;;;;;18.73;16.30;;;;;;;1.35;76.23;96131.28;5051894;28;24473;-71
2022/03/06 08:23:42;;;;;;;23.73;17.40;;;;;;;1.21;74.57;96142.59;5051450;28;24423;-71
2022/03/06 08:26:09;;;;;;;23.38;18.70;;;;;;;1.22;74.90;96130.69;5051663;28;25014;-71
2022/03/06 08:28:35;;;;;;;22.58;18.40;;;;;;;1.34;76.17;96135.56;5051308;28;24423;-71
2022/03/06 08:31:02;;;;;;;21.80;17.98;;;;;;;1.58;78.52;96141.84;5051518;28;24431;-71
2022/03/06 08:33:28;;;;;;;20.92;17.73;;;;;;;1.63;75.31;96129.81;5051455;28;24473;-71
2022/03/06 08:35:55;;;;;;;26.07;18.90;;;;;;;1.69;74.53;96136.50;5051352;28;24419;-71
2022/03/06 08:38:21;;;;;;;24.45;18.15;;;;;;;1.86;74.09;96136.13;5051077;28;24476;-71
2022/03/06 08:40:49;;;;;;;23.92;18.33;;;;;;;2.20;75.56;96138.72;5051180;28;24792;-71
2022/03/06 08:43:15;;;;;;;20.67;17.25;;;;;;;2.06;69.78;96136.50;5051225;28;24423;-71
2022/03/06 08:45:42;;;;;;;22.10;18.17;;;;;;;2.25;71.56;96139.44;5051144;28;24827;-71
2022/03/06 08:48:08;;;;;;;21.02;17.58;;;;;;;2.17;70.30;96142.19;5050876;28;24450;-72
2022/03/06 08:50:35;;;;;;;20.80;17.13;;;;;;;2.07;69.61;96143.28;5051091;28;24428;-72
2022/03/06 08:53:01;;;;;;;20.77;18.35;;;;;;;2.20;70.82;96130.22;5050981;28;24986;-72
2022/03/06 08:55:28;;;;;;;22.55;17.88;;;;;;;2.03;68.99;96138.28;5050234;28;24468;-72
2022/03/06 08:57:56;;;;;;;21.10;17.83;;;;;;;2.39;70.26;96131.44;5050944;28;24465;-72
2022/03/06 09:00:23;;;;;;;20.70;16.90;;;;;;;2.29;69.72;96143.59;5051036;28;24431;-72
2022/03/06 09:02:49;;;;;;;23.60;17.77;;;;;;;1.93;68.27;96130.00;5050991;28;24468;-72
2022/03/06 09:05:15;;;;;;;23.15;18.13;;;;;;;1.83;70.62;96129.38;5050662;28;24415;-72
2022/03/06 09:07:42;;;;;;;21.67;17.67;;;;;;;1.82;69.08;96125.16;5050490;28;25038;-72
2022/03/06 09:10:09;;;;;;;25.02;18.98;;;;;;;2.31;69.44;96128.25;5050923;28;24435;-72
2022/03/06 09:12:36;;;;;;;20.08;17.60;;;;;;;2.47;69.48;96133.81;5050701;28;24431;-72
2022/03/06 09:15:04;;;;;;;21.90;17.25;;;;;;;2.31;67.21;96125.69;5050743;28;24445;-72
2022/03/06 09:17:30;;;;;;;23.20;17.65;;;;;;;2.49;67.28;96124.41;5050579;28;24418;-72
2022/03/06 09:19:57;;;;;;;21.25;16.88;;;;;;;2.86;68.41;96132.78;5050232;28;24480;-71
2022/03/06 09:22:24;;;;;;;20.88;16.85;;;;;;;2.88;63.16;96119.94;5048569;28;24439;-71
2022/03/06 09:24:50;;;;;;;24.77;17.88;;;;;;;3.29;66.78;96120.50;5049784;28;24526;-73
2022/03/06 09:27:17;;;;;;;17.67;15.80;;;;;;;3.26;61.93;96124.00;5050506;28;24447;-72
2022/03/06 09:29:44;;;;;;;18.80;15.57;;;;;;;3.44;63.88;96124.34;5048902;28;24809;-73
2022/03/06 09:32:11;;;;;;;19.08;15.23;;;;;;;3.05;62.37;96124.63;5047586;28;24466;-72
2022/03/06 09:34:38;;;;;;;20.05;15.07;;;;;;;2.61;61.85;96137.69;5046819;28;24447;-73
2022/03/06 09:37:05;;;;;;;19.77;14.85;;;;;;;2.51;62.10;96133.69;5046660;28;24980;-72
2022/03/06 09:39:31;;;;;;;16.80;15.07;;;;;;;2.74;61.47;96124.59;5049658;28;24439;-73
2022/03/06 09:41:58;;;;;;;19.58;15.65;;;;;;;2.91;63.48;96130.94;5049871;28;24446;-72
2022/03/06 09:44:27;;;;;;;16.30;14.50;;;;;;;2.74;60.58;96125.41;5050145;28;24518;-73
2022/03/06 09:46:56;;;;;;;18.40;15.38;;;;;;;3.14;62.14;96129.47;5050115;28;24444;-73
2022/03/06 09:49:24;;;;;;;17.48;14.43;;;;;;;3.18;58.06;96123.38;5048878;28;24990;-72
2022/03/06 09:51:50;;;;;;;15.20;13.60;;;;;;;2.72;58.51;96126.34;5050252;28;24974;-72
2022/03/06 09:54:17;;;;;;;17.05;13.10;;;;;;;2.72;58.98;96116.13;5049974;28;24485;-73
2022/03/06 09:56:44;;;;;;;18.30;14.70;;;;;;;2.62;59.16;96130.84;5050294;28;24423;-72
2022/03/06 09:59:11;;;;;;;15.63;13.98;;;;;;;2.87;60.64;96120.81;5067436;28;24429;-73
2022/03/06 10:01:38;;;;;;;24.90;14.20;;;;;;;3.14;60.02;96120.06;5049546;28;24442;-72
2022/03/06 10:04:20;;;;;;;19.67;14.77;;;;;;;3.32;58.71;96120.44;5049815;28;25001;-72
2022/03/06 10:06:58;;;;;;;15.85;13.77;;;;;;;3.63;58.62;96122.91;5052663;28;24520;-73
2022/03/06 10:09:25;;;;;;;20.80;13.93;;;;;;;3.71;54.90;96123.56;5053782;28;24455;-73
2022/03/06 10:11:53;;;;;;;17.35;13.75;;;;;;;3.70;53.33;96121.84;5053172;28;24557;-73
2022/03/06 10:14:34;;;;;;;16.40;12.90;;;;;;;3.97;54.09;96127.88;5054249;28;24522;-73
2022/03/06 10:17:12;;;;;;;17.95;13.60;;;;;;;3.87;54.36;96121.34;5054003;28;24422;-73
2022/03/06 10:19:50;;;;;;;18.98;14.00;;;;;;;3.79;54.39;96118.19;5053070;28;24835;-72
2022/03/06 10:22:18;;;;;;;16.40;13.50;;;;;;;3.96;54.91;96122.78;5053610;28;24434;-73
2022/03/06 10:24:48;;;;;;;16.00;12.25;;;;;;;3.59;51.49;96129.03;5054020;28;24485;-72
2022/03/06 10:27:15;;;;;;;13.40;11.88;;;;;;;3.08;53.12;96138.16;5053197;28;25016;-72
2022/03/06 10:29:42;;;;;;;16.05;12.70;;;;;;;2.99;52.37;96129.88;5053154;28;25756;-72
2022/03/06 10:32:08;;;;;;;16.73;12.43;;;;;;;3.14;51.83;96137.97;5053818;28;24837;-73
2022/03/06 10:34:36;;;;;;;17.15;12.40;;;;;;;3.05;54.57;96132.28;5053114;28;24832;-73
2022/03/06 10:37:04;;;;;;;15.80;12.52;;;;;;;3.28;54.16;96132.47;5053533;28;24835;-73
2022/03/06 10:39:43;;;;;;;14.63;12.97;;;;;;;3.83;50.68;96128.28;5052931;28;24450;-74
2022/03/06 10:42:10;;;;;;;15.90;12.90;;;;;;;3.99;51.55;96125.25;5053079;28;24470;-74
2022/03/06 10:44:45;;;;;;;15.07;12.73;;;;;;;4.15;55.05;96130.72;5053181;28;24503;-72
2022/03/06 10:47:12;;;;;;;17.20;13.88;;;;;;;4.74;54.65;96117.66;5053030;28;24446;-72
2022/03/06 10:49:38;;;;;;;14.98;13.30;;;;;;;4.76;53.33;96124.44;5037203;28;24797;-72
2022/03/06 10:52:16;;;;;;;17.30;13.15;;;;;;;4.78;52.02;96126.94;5053114;28;24492;-72
2022/03/06 10:54:51;;;;;;;16.87;13.27;;;;;;;4.03;51.06;96125.09;5053193;28;24473;-72
2022/03/06 10:57:17;;;;;;;16.30;12.88;;;;;;;3.98;51.17;96121.84;5051746;28;24428;-72
2022/03/06 10:59:45;;;;;;;15.90;13.25;;;;;;;3.73;49.50;96121.75;5050985;28;24466;-72
2022/03/06 11:02:13;;;;;;;16.83;13.13;;;;;;;3.59;50.36;96122.16;5052688;28;24426;-72
2022/03/06 11:04:40;;;;;;;15.68;12.68;;;;;;;3.46;51.12;96127.72;5052060;28;24972;-72
2022/03/06 11:07:07;;;;;;;19.52;14.65;;;;;;;3.52;53.32;96133.50;5052655;28;24435;-72
2022/03/06 11:09:33;;;;;;;18.05;14.00;;;;;;;3.66;56.13;96116.88;5051674;28;24500;-72
2022/03/06 11:12:02;;;;;;;16.20;14.23;;;;;;;3.79;54.28;96118.19;5052433;28;24458;-72
2022/03/06 11:14:31;;;;;;;17.63;13.77;;;;;;;3.71;54.16;96120.13;5032001;28;24514;-72
2022/03/06 11:16:57;;;;;;;15.20;13.27;;;;;;;3.59;53.08;96119.59;5032350;28;24424;-72
2022/03/06 11:19:25;;;;;;;15.77;13.52;;;;;;;3.50;52.69;96119.06;5035409;28;24435;-73